Roswell International Air Center Airport Roswell US
ICAO: KROW
IATA: ROW
Category: Medium
Scheduled Services: Yes

Elevation: 3671 ft
TransAlt. 18000 ft.

Airport Communications:
APP/DEP:119.6
ATIS:128.45
CLNC DEL:132.875
CTAF:118.5
GND:121.9
ALBUQUERQUE RDO:122.45
TWR:118.5
UNICOM:122.95

KROW Zoom In..

Runways:

(A) RW 03 length 13001 ft width 150 ft
---- / hdg 35

(B) RW 17 length 9999 ft width 100 ft
---- / hdg 170

(C) RW 21 length 13001 ft width 150 ft
ILS 109.90 / hdg 215

(D) RW 35 length 9999 ft width 100 ft
---- / hdg 350

Location; KROW
Day. 19 / Time. 01.51 Zulu
* Altimeter: 30.12
* Temperature: 12° c. 53.6°f.
* Wind from: 270° Speed 03 kn.
Dewpoint: 02° c.
Visibility: 10 Statute Miles.
Clouds: Few 6000 ft.

KROW 190151Z 27003KT 10SM FEW060 12/02 A3012 RMK AO2 SLP173 T01170017

Going to: --> -->


Wind From 270°
Speed 03 kn.

 
 
jpsmedia worldairports.se 2021   terms of use